Rosburg, Washington
Current Conditions -  °F | °C
As of 9:32 PM on Sunday 19 Oct 2014 (Local Time) from KAST Reporting Station
Light Rain Light Rain  
Wind Chill: 60°   Ceiling: 3500
Heat Index: 60°   Visibility: 5mi
Dew Point: 57°   Wind: 16mph
Humidity: 90%   Direction: 190°S
Pressure: 29.68"   Gusts: 23mph
Location:  46.33°N, 123.64°W
Report Text: KAST 200432Z AUTO 19014G20KT 5SM -RA BR FEW022 SCT029 OVC035 16/14 A2968 RMK AO2 P0005 T01560139
Loading
Personal Weather Stations






























Interactive Weather Map
Tropical Storm Tracking
New forecast layout! Learn more

10-Day Weather Forecast

Advertisements
Track Severe Weather on mobile